Portada
METAR-TAF:

METAR-TAF

Aeroports :

Aeroport de Luxemburg

Luxemburg, Luxemburg

latitud: 49-37N, longitud: 006-13E, altitud: 376 m

Observació

L'informe es va fer fa 19 minuts, a les 07:20 UTC
Vent 7 kt del Est/Nord-Est
Temperatura -6°C
Humitat 93%
Pressió 1012 hPa
Visibilitat: 6000 m

METAR: ELLX 200720Z 06007KT 6000 NSC M06/M07 Q1012 NOSIG

Hora: 08:39 (07:39 UTC)

Pronòstic

L'informe es va fer fa 2 hores i 39 minuts, a les 05:00 UTC
Pronòstic vàlid del 20 a les 06 UTC al 21 a les 12 UTC
Vent 5 kt del Est/Nord-Est
Visibilitat 10 km o més
sense núvols per sota de 1500 mi sense presència de cumulonimbus.
Probabilitat 30% :
Temporalment
l' 20 a les 06 UTC al 20 a les 09 UTC
Visibilitat: 6000 m
Cel ennuvolat a una alçada de 3000 ft
neu

TAF: ELLX 200500Z 2006/2112 06005KT CAVOK PROB30 TEMPO 2006/2009 6000 -SN BKN030

Observacions i pronòstics meteorològics de més de 4000 aeroports (METAR i TAF).

Les estacions disponibles són els punts grocs i vermells al mapa.

Posi el ratolí al punt desitjat per veure el nom de l'estació.

Feu clic per veure les observacions i els pronòstics meteorològics.

Per canviar el mapa: feu clic els botons verds amb una creu de color negre per apropar; al botó verd amb un guió per allunyar la imatge; o en les fletxes verdes per a mapes adjacents.


METAR-TAF: